Washington State Corporations
Logistic

Jurisdiction:Washington State
Source:Washington State Secretary of State

This dataset includes 2.43 million business entities registered with Washington State Secretary of State.

logistic · Search Result

Corporation Name Office Address Agent Start Date
VANTAGE LOGISTICS USA LLC 12437 Se 297th Pl, Auburn, WA 98092-2170 2018-08-01
STRONG LOGISTICS, LLC 3510 132nd St Sw Unit A, Lynnwood, WA 98087-5105 2018-07-23
RAINIER LOGISTICS, LLC 18324 Cook Rd, Yelm, WA 98597-9673 2018-07-18
TRI-STARR LOGISTICS, LLC 732 Broadway Ste 201, Tacoma, WA 98402 ANDERSON LAW GROUP PLLC 2018-07-17
SILVANA LOGISTICS LLC 12254 2nd Pl Sw, Burien, WA 98146-2940 OWNER 2018-07-17
WINE LOGISTICS SERVICES NORTHWEST, LLC 173 Middle Waitsburg Rd Ste 120 Bldg C, Walla Walla, WA 99362-8661 2018-07-17
MG LOGISTICS LLC 19201 108th Ave Se Ste 201, Renton, WA 98055-7379 2018-07-16
MORAN LOGISTICS LLC 1602 Morgan Rd, Sunnyside, WA 98944-1223 2018-07-16
BUSINESS LOGISTICS LLC 13516 Ne 21st St, Vancouver, WA 98684-6821 2018-07-16
JJ CITY LOGISTICS LLC 402 16th St Ne, Auburn, WA 98002-1600 2018-07-13
KIRKLAND LOGISTICS, LLP 13341 15th Ave Ne Apt D301, Seattle, WA 98125-4060 2018-07-11
JSTARSLOGISTICS LLC 17701 108th Ave Se Ste 526, Renton, WA 98055-6448 LOGISTISERV LLC 2018-07-11
GO ON LOGISTICS, LLC 22815 30th Ave S Apt 2c, Des Moines, WA 98198-7240 2018-07-11
DISPOZ-A-TRAY LOGISTIC SERVICES, LLC 5205 S 232nd St, Kent, WA 98032-3360 2018-07-10
HTC LOGISTICS LLC 29663 129th Pl Se, Auburn, WA 98092-3236 2018-07-06
APPLE VALLEY LOGISTICS LLC 24120 E Broadway Ct, Liberty Lake, WA 99019-9671 2018-07-06
TIKAANI LOGISTIC SERVICE COMPANY LLC 1208 N Steele St, Tacoma, WA 98406-8006 MSSAUER 2018-07-05
LULUIA LOGISTICS LLC 402 16th St Ne, Auburn, WA 98002-1600 SOUND SERVICE BUREAU LLC 2018-07-03
STELLAR SERVICE LOGISTICS LLC 10907 Ne 6th Ave, Vancouver, WA 98685 STELLAR SERVICE LOGISTICS 2018-07-03
SALISH SEA LOGISTICS, LLC 900 Dupont St, Bellingham, WA 98225-3105 2018-07-03
READY TO GO LOGISTICS INC 7009 Louisiana Dr, Vancouver, WA 98664-1519 2018-07-02
ASHBY LOGISTICS LLC 14205 Se 36th St Ste 100, Bellevue, WA 98006-1553 UNITED STATES CORPORATION AGENTS, INC 2018-06-25
INDIAN PANDA LOGISTICS LLC 16607 122nd Ave Se, Renton, WA 98058-5305 2018-06-21
G&S LOGISTICS L.L.C. 3131 W Wapato Dr Unit 24, Moses Lake, WA 98837-2948 2018-06-20
DSI LOGISTICS INC. 1001 4th Ave Ste 3200, Seattle, WA 98154-1003 LEGALINC CORPORATE SERVICES INC. 2018-06-18
GM LOGISTICS LLC 402 16th St Ne, Auburn, WA 98002-1600 SOUND SERVICE BUREAU 2018-06-18
JATO LOGISTICS LLC 932 S Hazelwood Ct, Spokane, WA 99224-9492 2018-06-18
ARCHY LOGISTIC LLC 35618 52nd Ave S, Auburn, WA 98001-9165 2018-06-18
TRICON LOGISTICS LLC 1780 Barnes Blvd Sw, Tumwater, WA 98512 CAPITAL CORPORATE SERVICES INC 2018-06-15
OLDLAKE LOGISTICS LLC 345 Pacific Ave N Apt Ll06, Pacific, WA 98047-1297 2018-06-15
WOLFWYZ LOGISTICS LLC 14205 Se 36th St Ste 100, Bellevue, WA 98006-1553 UNITED STATES CORPORATION AGENTS, INC. 2018-06-15
EBENEZER LOGISTICS LLC 19201 108th Ave Se Ste 201, Renton, WA 98055-7379 2018-06-13
PEAK LOGISTICS LLC 913 Pine St, Everett, WA 98201-1421 2018-06-13
NOCTURNAL LOGISTICS LLC 1212 Ne 112th Ave, Vancouver, WA 98684-4953 2018-06-12
RIVER CAPITAL LOGISTICS INC. 2119 Nw 45th Ave, Camas, WA 98607-9139 2018-06-05
RAINSTATE LOGISTICS INC 1900 Sw Campus Dr Apt 34-202, Federal Way, WA 98023-6576 2018-06-04
LAST MILE LOGISTICS, DELIVERY SERVICE L.L.C. 24003 134th Ct Se, Kent, WA 98042-3306 2018-06-01
JAS LOGISTICS LLC 919 N Skipworth Rd, Spokane Vly, WA 99206-5074 2018-05-31
NEWPAT LOGISTICS LLC 5408 S 237th Pl, Kent, WA 98032-3793 NEWPAT LOGISTICS 2018-05-31
RTC LOGISTICS LLC 9715 S 245th Pl, Kent, WA 98030-5038 2018-05-30
E & D LOGISTICS LLC 1520 N Daniel St, Moses Lake, WA 98837-1313 2018-05-29
BLACKSTONE LOGISTICS L.L.C. 2442 Nw Market St # 506, Seattle, WA 98107-4137 2018-05-29
PNK TRANSPORT AND LOGISTICS LLC 4511 Clydesdale Ln, Pasco, WA 99301-6697 2018-05-24
PRIORITY FREIGHT LOGISTICS, LLC 4505 Pacific Hwy E Ste C-2, Fife, WA 98424 INCORP SERVICES, INC. 2018-05-22
WALIA LOGISTICS LLC 17701 108th Ave Se Ste 526, Renton, WA 98055-6448 LOGISTISERV LLC 2018-05-22
OMEGA LOGISTICS LLC 19201 108th Ave Se Ste 201, Renton, WA 98055-7379 2018-05-18
NIN LOGISTICS LLC 2014 Road H.1 Ne, Moses Lake, WA 98837-8772 2018-05-18
BOXX GOODS AND LOGISTICS L.L.C. 372 E Wiser Lake Rd, Lynden, WA 98264-9205 2018-05-17
IRON PEAK LOGISTICS, LLC 1413 S 28th Ave, Yakima, WA 98902-5023 2018-05-17
GEF LOGISTICS INC. 11320 Se 265th Pl, Kent, WA 98030-8661 2018-05-15
EMB LOGISTICS CONSULTING LLC 8531 19th Ave Nw, Seattle, WA 98117-3519 2018-05-15
LAKE WILDERNESS LOGISTICS LLC 25402 Lake Wilderness Country Club Dr Se, Maple Valley, WA 98038-6004 2018-05-14
LLV LOGISTICS LLC 3717 148th St Sw Apt E102, Lynnwood, WA 98087-5540 2018-05-14
KINETIC LOGISTICS CO. 170 S Lincoln Ste 150, Spokane, WA 99201 REGISTERED AGENTS INC. 2018-05-10
GEMINI FREIGHT AND LOGISTICS, INC. 8105 Birch Bay Square St Ste 102, Blaine, WA 98230-9802 BIRCH BAY TAX & ACCOUNTING 2018-05-10
USL LOGISTICS, LLC 711 Capitol Way S Ste 204, Olympia, WA 98501 C T CORPORATION SYSTEM 2018-05-09
DANN LOGISTICS, LLC 15 S Grady Way Ste 409, Renton, WA 98057-3216 ATS SERVICES, LLC 2018-05-09
TIDE LOGISTICS LLC 10527 Se 264th St, Kent, WA 98030-7645 2018-05-09
THE VES LOGISTICS LLC 29 112th St Se, Everett, WA 98208-5002 2018-05-08
JACK & J LOGISTICS LLC 4802 S Pine St Apt K81, Tacoma, WA 98409-6469 2018-05-08
PACIFIC LOGISTICS INDUSTRIAL NORTH, LLC 3400 Capitol Blvd. Se Suite 101, Tumwater, WA 98501 REGISTERED AGENT SOLUTIONS, INC. 2018-05-03
PACIFIC LOGISTICS INDUSTRIAL SOUTH, LLC 3400 Capitol Blvd Se Ste 101, Tumwater, WA 98501-3351 REGISTERED AGENT SOLUTIONS INC 2018-05-03
WESTLAND LOGISTIC LLC 23414 26th Ave S, Des Moines, WA 98198-8741 2018-05-02
JIBB LOGISTICS LLC 14208 4th Ave S, Burien, WA 98168-3504 2018-04-30
CARPE DIEM LOGISTICS, LLC 249 Main Ave S Ste 107 #325, North Bend, WA 98045-5016 CARPE DIEM LOGISTICS LLC 2018-04-26
EAGLES LOGISTICS LLC 17312 Se 185th St, Renton, WA 98058-9572 2018-04-26
HK LOGISTIC LLC 18930 Bothell Everett Hwy F102, Bothell, WA 98012-6848 2018-04-24
BREAK-THROUGH LOGISTICS, INC 4227 S Meridian Ste C555, Puyallup, WA 98373-3603 BREAK-THROUGH LOGISTICS 2018-04-20
OPTIMUM LOGISTICS SERVICES, CO. 6407 Ne 108th Ave, Vancouver, WA 98662-5385 2018-04-20
COMPLIANT LOGISTICS, LLC 230 E Champion St, Bellingham, WA 98225-4548 BROWNLIE WOLF & LEE, LLP 2018-04-20
BO LOGISTICS LLC 1135 Sw 322nd St, Federal Way, WA 98023-5557 2018-04-17
URBAN LOGISTICS LLC 604 Nw 16th St, Battle Ground, WA 98604-8031 2018-04-17
GREAT STATE LOGISTICS LLC 17701 108th Ave Se Ste 526, Renton, WA 98055-6448 LOGISTISERV LLC 2018-04-16
DOTD LOGISTICS, LLC 2014 Ne 126th Ave, Vancouver, WA 98684-6737 2018-04-10
LEAF LOGISTICS, LLC 4505 Pacific Hwy E Ste C-2, Fife, WA 98424 INCORP SERVICES, INC. 2018-04-09
VERSATILITY LOGISTICS, LLC 3435 Auburn Way S Unit 62, Auburn, WA 98092-7271 VERSATILITY LOGISTICS 2018-04-06
ULTIMATE LOGISTICS LLC 20834 32nd Ln S Apt #d, Seatac, WA 98198-4838 2018-04-06
GILU LOGISTICS LLC 1416 N 30th St Apt 2, Renton, WA 98056-2179 2018-04-04
NW LOGISTICS LLC 1428 4th Ave E, Olympia, WA 98506-4445 BALDWIN LEGAL GROUP 2018-04-02
TVK LOGISTICS, LLC 719 A St Ne, Auburn, WA 98002-4026 2018-04-01
MANRAN LOGISTICS LLC 20918 109th Ave Place Se Apt # 1927, Kent, WA 98031 2018-03-30
DIVISION ONE LOGISTICS, INC. 5307 44th Ct Se, Lacey, WA 98503-4341 2018-03-28
STS LOGISTICS, LLC 1448 Elliot Ave W, Seattle, WA 98119 2018-03-28
ZULA LOGISTICS LLC 402 16th St Ne, Auburn, WA 98002-1600 SOUND SERVICE BUREAU LLC 2018-03-27
OAKTREE LOGISTICS LLC 3423 Robe Menzel Rd, Granite Falls, WA 98252-9430 OAKTREE LOGISTICS 2018-03-27
JRCP LOGISTICS LLC. 1429 Alki St Ne, Olympia, WA 98516-5943 2018-03-26
BESK LOGISTICS, INC. 25 Thunderbird Pkwy Sw, Lakewood, WA 98498-6181 2018-03-26
AAHED LOGISTICS LLC 2570 Alaska Ave E, Port Orchard, WA 98366-8213 2018-03-26
OCEAN LOGISTICS INC 1647 E Portland Ave, Tacoma, WA 98421-2802 2018-03-22
SGM LOGISTICS LLC 209 21st Ave Sw Apt A301, Puyallup, WA 98371-7520 2018-03-22
GRAND CHINA LOGISTICS HOLDING (GROUP) COMPANY LIMITED 711 Capitol Way S Ste 204, Olympia, WA 98501 C T CORPORATION SYSTEM 2018-03-21
KOCH LOGISTICS LLC 19201 108th Ave Se Ste 201, Renton, WA 98055-7379 2018-03-21
CHINOOK WINDS LOGISTICS LLC 510 Stevens Ave Sw Apt P302, Renton, WA 98057-5887 2018-03-20
CYBER TRUCKING AND LOGISTICS, LLC 11050 26th Ave Sw, Seattle, WA 98146-1922 2018-03-16
ON DEMAND LOGISTICS SERVICES-WA LLC 1001 4th Ave Ste 3200, Seattle, WA 98154-1003 LEGALINC CORPORATE SERVICES INC. 2018-03-13
AIT WORLDWIDE LOGISTICS, INC. 3400 Capitol Blvd. Se Suite 101, Tumwater, WA 98501 REGISTERED AGENT SOLUTIONS, INC. 2018-03-13
HOPELIGHT LOGISTICS LLC 8816 Renton Ave S, Seattle, WA 98118 2018-03-12
JRA LOGISTICS, LLC 14205 Se 36th St Ste 100, Bellevue, WA 98006-1553 UNITED STATES CORPORATION AGENTS, INC 2018-03-08
KIMWO LOGISTICS INC. 1301 6th Ave, Seattle, WA 98101-2304 2018-03-05
JANJUA LOGISTICS LLC 21030 109th Pl Se Apt 703, Kent, WA 98031-2118 2018-03-02